sensor_id;sensor_type;location;lat;lon;timestamp;pressure;altitude;pressure_sealevel;temperature;humidity
70921;BME280;58572;48.110;19.838;2023-04-27T00:02:22;97883.63;;;5.16;61.84
70921;BME280;58572;48.110;19.838;2023-04-27T00:04:50;97800.25;;;4.48;60.66
70921;BME280;58572;48.110;19.838;2023-04-27T00:07:17;97799.59;;;5.19;60.73
70921;BME280;58572;48.110;19.838;2023-04-27T00:09:46;97868.56;;;5.80;60.87
70921;BME280;58572;48.110;19.838;2023-04-27T00:12:13;97786.34;;;5.34;61.35
70921;BME280;58572;48.110;19.838;2023-04-27T00:14:40;97877.28;;;5.22;63.16
70921;BME280;58572;48.110;19.838;2023-04-27T00:17:07;97881.06;;;5.42;62.15
70921;BME280;58572;48.110;19.838;2023-04-27T00:19:34;97877.22;;;5.60;60.85
70921;BME280;58572;48.110;19.838;2023-04-27T00:22:01;97880.78;;;5.22;61.67
70921;BME280;58572;48.110;19.838;2023-04-27T00:24:28;97878.66;;;5.24;60.28
70921;BME280;58572;48.110;19.838;2023-04-27T00:26:57;97862.66;;;5.18;60.31
70921;BME280;58572;48.110;19.838;2023-04-27T00:29:24;97883.94;;;4.30;64.73
70921;BME280;58572;48.110;19.838;2023-04-27T00:31:51;97873.13;;;4.97;60.90
70921;BME280;58572;48.110;19.838;2023-04-27T00:34:18;97872.59;;;5.17;60.58
70921;BME280;58572;48.110;19.838;2023-04-27T00:36:45;97867.75;;;5.36;61.04
70921;BME280;58572;48.110;19.838;2023-04-27T00:39:13;97864.94;;;5.48;60.84
70921;BME280;58572;48.110;19.838;2023-04-27T00:41:41;97874.16;;;4.74;61.33
70921;BME280;58572;48.110;19.838;2023-04-27T00:44:09;97876.56;;;4.93;62.25
70921;BME280;58572;48.110;19.838;2023-04-27T00:46:37;97877.97;;;4.78;62.06
70921;BME280;58572;48.110;19.838;2023-04-27T00:49:04;97883.06;;;4.41;62.65
70921;BME280;58572;48.110;19.838;2023-04-27T00:51:31;97879.03;;;4.27;61.40
70921;BME280;58572;48.110;19.838;2023-04-27T00:53:59;97876.03;;;4.40;62.81
70921;BME280;58572;48.110;19.838;2023-04-27T00:56:26;97873.81;;;4.71;61.75
70921;BME280;58572;48.110;19.838;2023-04-27T00:58:53;97878.63;;;4.19;62.20
70921;BME280;58572;48.110;19.838;2023-04-27T01:01:22;97882.31;;;4.29;62.29
70921;BME280;58572;48.110;19.838;2023-04-27T01:03:49;97886.41;;;4.48;64.06
70921;BME280;58572;48.110;19.838;2023-04-27T01:06:16;97885.00;;;4.01;63.72
70921;BME280;58572;48.110;19.838;2023-04-27T01:08:43;97883.13;;;4.63;62.82
70921;BME280;58572;48.110;19.838;2023-04-27T01:11:11;97880.84;;;4.72;62.45
70921;BME280;58572;48.110;19.838;2023-04-27T01:13:38;97891.53;;;4.05;63.50
70921;BME280;58572;48.110;19.838;2023-04-27T01:16:05;97885.56;;;4.31;63.32
70921;BME280;58572;48.110;19.838;2023-04-27T01:18:34;97795.44;;;3.55;64.01
70921;BME280;58572;48.110;19.838;2023-04-27T01:21:02;97774.22;;;3.70;63.31
70921;BME280;58572;48.110;19.838;2023-04-27T01:23:31;97889.00;;;4.77;62.37
70921;BME280;58572;48.110;19.838;2023-04-27T01:25:58;97891.13;;;4.13;63.62
70921;BME280;58572;48.110;19.838;2023-04-27T01:28:25;97890.47;;;4.34;63.67
70921;BME280;58572;48.110;19.838;2023-04-27T01:30:52;97891.34;;;4.23;64.95
70921;BME280;58572;48.110;19.838;2023-04-27T01:33:19;97829.03;;;4.14;62.88
70921;BME280;58572;48.110;19.838;2023-04-27T01:35:46;97886.44;;;5.21;61.30
70921;BME280;58572;48.110;19.838;2023-04-27T01:38:14;97886.75;;;5.24;61.58
70921;BME280;58572;48.110;19.838;2023-04-27T01:40:42;97891.78;;;4.48;63.94
70921;BME280;58572;48.110;19.838;2023-04-27T01:43:09;97846.47;;;4.12;64.46
70921;BME280;58572;48.110;19.838;2023-04-27T01:45:37;97899.13;;;4.70;62.33
70921;BME280;58572;48.110;19.838;2023-04-27T01:48:04;97895.66;;;5.08;62.93
70921;BME280;58572;48.110;19.838;2023-04-27T01:50:31;97897.78;;;5.23;63.34
70921;BME280;58572;48.110;19.838;2023-04-27T01:52:58;97902.63;;;4.70;63.89
70921;BME280;58572;48.110;19.838;2023-04-27T01:55:25;97898.75;;;5.17;62.71
70921;BME280;58572;48.110;19.838;2023-04-27T01:57:54;97877.00;;;4.34;63.37
70921;BME280;58572;48.110;19.838;2023-04-27T02:00:21;97906.84;;;5.00;62.77
70921;BME280;58572;48.110;19.838;2023-04-27T02:02:48;97777.84;;;4.26;62.54
70921;BME280;58572;48.110;19.838;2023-04-27T02:05:18;97824.56;;;4.54;63.06
70921;BME280;58572;48.110;19.838;2023-04-27T02:07:45;97906.84;;;5.00;62.78
70921;BME280;58572;48.110;19.838;2023-04-27T02:10:12;97911.19;;;5.01;62.92
70921;BME280;58572;48.110;19.838;2023-04-27T02:12:39;97913.13;;;5.05;62.80
70921;BME280;58572;48.110;19.838;2023-04-27T02:15:08;97915.75;;;4.84;63.04
70921;BME280;58572;48.110;19.838;2023-04-27T02:17:36;97872.53;;;4.57;62.64
70921;BME280;58572;48.110;19.838;2023-04-27T02:20:05;97925.28;;;4.24;64.97
70921;BME280;58572;48.110;19.838;2023-04-27T02:22:33;97924.25;;;4.92;62.73
70921;BME280;58572;48.110;19.838;2023-04-27T02:25:00;97915.91;;;4.94;63.19
70921;BME280;58572;48.110;19.838;2023-04-27T02:27:27;97919.81;;;5.03;62.70
70921;BME280;58572;48.110;19.838;2023-04-27T02:29:54;97923.25;;;4.31;64.46
70921;BME280;58572;48.110;19.838;2023-04-27T02:32:23;97900.38;;;4.17;64.28
70921;BME280;58572;48.110;19.838;2023-04-27T02:34:50;97870.16;;;4.43;62.80
70921;BME280;58572;48.110;19.838;2023-04-27T02:37:17;97925.03;;;5.09;61.79
70921;BME280;58572;48.110;19.838;2023-04-27T02:39:44;97934.03;;;4.98;62.45
70921;BME280;58572;48.110;19.838;2023-04-27T02:42:11;97929.63;;;4.92;62.84
70921;BME280;58572;48.110;19.838;2023-04-27T02:44:38;97927.19;;;4.91;62.41
70921;BME280;58572;48.110;19.838;2023-04-27T02:47:05;97926.84;;;4.87;62.71
70921;BME280;58572;48.110;19.838;2023-04-27T02:49:34;97940.13;;;2.76;69.34
70921;BME280;58572;48.110;19.838;2023-04-27T02:52:01;97931.63;;;4.18;64.32
70921;BME280;58572;48.110;19.838;2023-04-27T02:54:29;97746.22;;;2.34;66.20
70921;BME280;58572;48.110;19.838;2023-04-27T02:56:56;97940.03;;;3.81;65.28
70921;BME280;58572;48.110;19.838;2023-04-27T02:59:24;97939.25;;;4.55;64.16
70921;BME280;58572;48.110;19.838;2023-04-27T03:01:51;97935.84;;;4.76;63.30
70921;BME280;58572;48.110;19.838;2023-04-27T03:04:18;97940.75;;;4.79;62.98
70921;BME280;58572;48.110;19.838;2023-04-27T03:06:48;97939.44;;;4.65;63.10
70921;BME280;58572;48.110;19.838;2023-04-27T03:09:15;97941.38;;;4.53;63.70
70921;BME280;58572;48.110;19.838;2023-04-27T03:11:42;97936.34;;;4.73;62.88
70921;BME280;58572;48.110;19.838;2023-04-27T03:14:09;97949.72;;;4.68;63.99
70921;BME280;58572;48.110;19.838;2023-04-27T03:16:37;97943.25;;;4.69;62.94
70921;BME280;58572;48.110;19.838;2023-04-27T03:19:04;97901.94;;;2.63;68.66
70921;BME280;58572;48.110;19.838;2023-04-27T03:21:31;97952.19;;;4.24;63.95
70921;BME280;58572;48.110;19.838;2023-04-27T03:24:00;97952.44;;;4.11;63.88
70921;BME280;58572;48.110;19.838;2023-04-27T03:26:27;97944.09;;;4.24;63.33
70921;BME280;58572;48.110;19.838;2023-04-27T03:28:54;97801.41;;;3.05;64.63
70921;BME280;58572;48.110;19.838;2023-04-27T03:31:21;97952.53;;;3.12;69.25
70921;BME280;58572;48.110;19.838;2023-04-27T03:33:48;97956.41;;;4.08;64.09
70921;BME280;58572;48.110;19.838;2023-04-27T03:36:16;97961.75;;;3.28;64.46
70921;BME280;58572;48.110;19.838;2023-04-27T03:38:43;97956.56;;;3.62;66.04
70921;BME280;58572;48.110;19.838;2023-04-27T03:41:11;97961.59;;;3.98;64.01
70921;BME280;58572;48.110;19.838;2023-04-27T03:43:39;97967.84;;;3.24;67.17
70921;BME280;58572;48.110;19.838;2023-04-27T03:46:06;97970.91;;;2.74;71.14
70921;BME280;58572;48.110;19.838;2023-04-27T03:48:33;97971.41;;;3.64;65.37
70921;BME280;58572;48.110;19.838;2023-04-27T03:51:01;97928.50;;;3.98;63.49
70921;BME280;58572;48.110;19.838;2023-04-27T03:53:28;97968.09;;;4.14;63.08
70921;BME280;58572;48.110;19.838;2023-04-27T03:55:56;97963.66;;;4.20;63.09
70921;BME280;58572;48.110;19.838;2023-04-27T03:58:24;97971.88;;;4.41;62.31
70921;BME280;58572;48.110;19.838;2023-04-27T04:00:52;97964.94;;;4.45;63.13
70921;BME280;58572;48.110;19.838;2023-04-27T04:03:19;97972.53;;;4.48;63.62
70921;BME280;58572;48.110;19.838;2023-04-27T04:05:46;97935.25;;;4.12;63.67
70921;BME280;58572;48.110;19.838;2023-04-27T04:08:13;97979.56;;;4.49;62.99
70921;BME280;58572;48.110;19.838;2023-04-27T04:10:40;97981.94;;;4.63;63.02
70921;BME280;58572;48.110;19.838;2023-04-27T04:13:07;97878.19;;;3.81;63.74
70921;BME280;58572;48.110;19.838;2023-04-27T04:15:36;97987.72;;;4.55;63.21
70921;BME280;58572;48.110;19.838;2023-04-27T04:18:03;97983.16;;;4.55;63.74
70921;BME280;58572;48.110;19.838;2023-04-27T04:20:33;97980.38;;;4.67;63.44
70921;BME280;58572;48.110;19.838;2023-04-27T04:23:00;97986.44;;;4.74;62.83
70921;BME280;58572;48.110;19.838;2023-04-27T04:25:27;97987.75;;;4.71;62.23
70921;BME280;58572;48.110;19.838;2023-04-27T04:27:55;97984.97;;;4.83;62.59
70921;BME280;58572;48.110;19.838;2023-04-27T04:30:22;97980.88;;;4.64;62.75
70921;BME280;58572;48.110;19.838;2023-04-27T04:32:51;97982.03;;;4.68;62.74
70921;BME280;58572;48.110;19.838;2023-04-27T04:35:19;97981.84;;;4.58;63.06
70921;BME280;58572;48.110;19.838;2023-04-27T04:37:48;97991.19;;;4.84;63.26
70921;BME280;58572;48.110;19.838;2023-04-27T04:40:15;97992.47;;;4.81;63.15
70921;BME280;58572;48.110;19.838;2023-04-27T04:42:42;98000.16;;;4.72;63.17
70921;BME280;58572;48.110;19.838;2023-04-27T04:45:09;98001.94;;;4.84;62.62
70921;BME280;58572;48.110;19.838;2023-04-27T04:47:37;97972.66;;;4.70;62.43
70921;BME280;58572;48.110;19.838;2023-04-27T04:50:07;98004.88;;;4.82;62.28
70921;BME280;58572;48.110;19.838;2023-04-27T04:52:35;98011.16;;;4.71;63.23
70921;BME280;58572;48.110;19.838;2023-04-27T04:55:02;98014.19;;;4.91;62.21
70921;BME280;58572;48.110;19.838;2023-04-27T04:57:30;98013.22;;;4.97;61.81
70921;BME280;58572;48.110;19.838;2023-04-27T04:59:57;98011.09;;;4.99;62.15
70921;BME280;58572;48.110;19.838;2023-04-27T05:02:24;98011.25;;;4.93;62.19
70921;BME280;58572;48.110;19.838;2023-04-27T05:04:51;98016.97;;;4.79;62.67
70921;BME280;58572;48.110;19.838;2023-04-27T05:07:20;98019.16;;;4.37;63.99
70921;BME280;58572;48.110;19.838;2023-04-27T05:09:47;97990.94;;;3.48;68.99
70921;BME280;58572;48.110;19.838;2023-04-27T05:12:14;98014.97;;;3.78;69.53
70921;BME280;58572;48.110;19.838;2023-04-27T05:14:42;98018.28;;;4.20;64.26
70921;BME280;58572;48.110;19.838;2023-04-27T05:17:09;98020.38;;;4.75;62.97
70921;BME280;58572;48.110;19.838;2023-04-27T05:19:36;98018.78;;;4.91;62.13
70921;BME280;58572;48.110;19.838;2023-04-27T05:22:03;98018.25;;;4.77;62.55
70921;BME280;58572;48.110;19.838;2023-04-27T05:24:32;98034.44;;;4.77;62.86
70921;BME280;58572;48.110;19.838;2023-04-27T05:26:59;98032.59;;;4.66;63.30
70921;BME280;58572;48.110;19.838;2023-04-27T05:29:28;98024.97;;;4.91;61.99
70921;BME280;58572;48.110;19.838;2023-04-27T05:31:55;98032.38;;;4.67;62.75
70921;BME280;58572;48.110;19.838;2023-04-27T05:34:23;98031.16;;;4.75;62.03
70921;BME280;58572;48.110;19.838;2023-04-27T05:36:50;98027.22;;;4.66;61.85
70921;BME280;58572;48.110;19.838;2023-04-27T05:39:17;98034.06;;;4.57;62.01
70921;BME280;58572;48.110;19.838;2023-04-27T05:41:45;98055.66;;;4.90;61.36
70921;BME280;58572;48.110;19.838;2023-04-27T05:44:13;98039.66;;;4.84;61.86
70921;BME280;58572;48.110;19.838;2023-04-27T05:46:41;98042.75;;;4.75;62.17
70921;BME280;58572;48.110;19.838;2023-04-27T05:49:08;98043.66;;;4.53;65.39
70921;BME280;58572;48.110;19.838;2023-04-27T05:51:35;97945.19;;;3.71;66.86
70921;BME280;58572;48.110;19.838;2023-04-27T05:54:03;98042.22;;;4.62;65.94
70921;BME280;58572;48.110;19.838;2023-04-27T05:56:30;98035.72;;;4.74;63.48
70921;BME280;58572;48.110;19.838;2023-04-27T05:58:59;98038.03;;;4.82;64.08
70921;BME280;58572;48.110;19.838;2023-04-27T06:01:26;98034.34;;;4.89;65.97
70921;BME280;58572;48.110;19.838;2023-04-27T06:03:54;97969.19;;;4.58;64.41
70921;BME280;58572;48.110;19.838;2023-04-27T06:06:25;98042.97;;;5.36;66.91
70921;BME280;58572;48.110;19.838;2023-04-27T06:08:53;97918.22;;;4.85;63.06
70921;BME280;58572;48.110;19.838;2023-04-27T06:11:20;98036.56;;;5.75;61.42
70921;BME280;58572;48.110;19.838;2023-04-27T06:13:48;98038.34;;;5.70;61.08
70921;BME280;58572;48.110;19.838;2023-04-27T06:16:17;98047.19;;;5.65;61.80
70921;BME280;58572;48.110;19.838;2023-04-27T06:18:45;98009.22;;;5.89;60.63
70921;BME280;58572;48.110;19.838;2023-04-27T06:21:12;97972.03;;;5.52;60.25
70921;BME280;58572;48.110;19.838;2023-04-27T06:23:39;98042.47;;;6.33;58.89
70921;BME280;58572;48.110;19.838;2023-04-27T06:26:06;98040.97;;;6.42;60.61
70921;BME280;58572;48.110;19.838;2023-04-27T06:28:33;97971.16;;;6.07;55.83
70921;BME280;58572;48.110;19.838;2023-04-27T06:31:01;98051.81;;;6.47;58.33
70921;BME280;58572;48.110;19.838;2023-04-27T06:33:29;98057.03;;;6.81;56.37
70921;BME280;58572;48.110;19.838;2023-04-27T06:35:56;98054.19;;;6.92;56.70
70921;BME280;58572;48.110;19.838;2023-04-27T06:38:24;98063.72;;;6.73;56.15
70921;BME280;58572;48.110;19.838;2023-04-27T06:40:51;98057.97;;;7.23;53.39
70921;BME280;58572;48.110;19.838;2023-04-27T06:43:18;98056.28;;;7.44;53.43
70921;BME280;58572;48.110;19.838;2023-04-27T06:45:46;98061.31;;;7.03;52.63
70921;BME280;58572;48.110;19.838;2023-04-27T06:48:13;98060.75;;;7.01;52.63
70921;BME280;58572;48.110;19.838;2023-04-27T06:50:42;98062.94;;;7.31;49.60
70921;BME280;58572;48.110;19.838;2023-04-27T06:53:09;98063.03;;;7.15;52.97
70921;BME280;58572;48.110;19.838;2023-04-27T06:55:36;98063.19;;;7.30;52.49
70921;BME280;58572;48.110;19.838;2023-04-27T06:58:04;98058.22;;;7.22;51.78
70921;BME280;58572;48.110;19.838;2023-04-27T07:00:31;97963.22;;;6.44;52.80
70921;BME280;58572;48.110;19.838;2023-04-27T07:02:58;98054.63;;;7.38;54.60
70921;BME280;58572;48.110;19.838;2023-04-27T07:05:28;98064.56;;;7.64;47.49
70921;BME280;58572;48.110;19.838;2023-04-27T07:07:56;98060.25;;;7.68;48.57
70921;BME280;58572;48.110;19.838;2023-04-27T07:10:23;98066.69;;;7.62;50.54
70921;BME280;58572;48.110;19.838;2023-04-27T07:12:51;98066.81;;;7.41;45.92
70921;BME280;58572;48.110;19.838;2023-04-27T07:15:18;98064.19;;;7.51;48.67
70921;BME280;58572;48.110;19.838;2023-04-27T07:17:46;97948.91;;;6.76;47.34
70921;BME280;58572;48.110;19.838;2023-04-27T07:20:13;97925.34;;;6.66;49.24
70921;BME280;58572;48.110;19.838;2023-04-27T07:22:41;98068.66;;;7.72;47.09
70921;BME280;58572;48.110;19.838;2023-04-27T07:25:11;98069.19;;;8.16;48.00
70921;BME280;58572;48.110;19.838;2023-04-27T07:27:38;98075.88;;;7.98;46.06
70921;BME280;58572;48.110;19.838;2023-04-27T07:30:07;98073.88;;;7.84;48.90
70921;BME280;58572;48.110;19.838;2023-04-27T07:32:34;98073.25;;;8.14;46.03
70921;BME280;58572;48.110;19.838;2023-04-27T07:35:03;98069.53;;;8.98;45.40
70921;BME280;58572;48.110;19.838;2023-04-27T07:37:31;98058.91;;;10.28;42.28
70921;BME280;58572;48.110;19.838;2023-04-27T07:39:58;98057.81;;;10.88;46.43
70921;BME280;58572;48.110;19.838;2023-04-27T07:42:28;98062.69;;;10.92;47.02
70921;BME280;58572;48.110;19.838;2023-04-27T07:44:55;98060.88;;;11.21;46.87
70921;BME280;58572;48.110;19.838;2023-04-27T07:47:23;98071.13;;;10.10;42.88
70921;BME280;58572;48.110;19.838;2023-04-27T07:49:50;98072.41;;;11.08;41.11
70921;BME280;58572;48.110;19.838;2023-04-27T07:52:17;98071.50;;;10.73;44.65
70921;BME280;58572;48.110;19.838;2023-04-27T07:54:44;98074.03;;;11.09;44.12
70921;BME280;58572;48.110;19.838;2023-04-27T07:57:11;98001.88;;;11.79;42.52
70921;BME280;58572;48.110;19.838;2023-04-27T07:59:40;98074.25;;;10.68;45.87
70921;BME280;58572;48.110;19.838;2023-04-27T08:02:07;98076.22;;;10.52;46.76
70921;BME280;58572;48.110;19.838;2023-04-27T08:04:34;98077.84;;;10.53;42.45
70921;BME280;58572;48.110;19.838;2023-04-27T08:07:01;98076.19;;;10.63;45.79
70921;BME280;58572;48.110;19.838;2023-04-27T08:09:29;98066.94;;;11.52;45.79
70921;BME280;58572;48.110;19.838;2023-04-27T08:11:57;98078.69;;;11.42;46.20
70921;BME280;58572;48.110;19.838;2023-04-27T08:14:24;98071.69;;;11.31;42.26
70921;BME280;58572;48.110;19.838;2023-04-27T08:16:52;98045.59;;;10.16;48.19
70921;BME280;58572;48.110;19.838;2023-04-27T08:19:22;98078.69;;;10.44;45.78
70921;BME280;58572;48.110;19.838;2023-04-27T08:21:49;98073.22;;;10.54;43.25
70921;BME280;58572;48.110;19.838;2023-04-27T08:24:16;98045.72;;;9.60;45.02
70921;BME280;58572;48.110;19.838;2023-04-27T08:26:45;98085.34;;;9.51;47.33
70921;BME280;58572;48.110;19.838;2023-04-27T08:29:12;98083.72;;;9.50;44.86
70921;BME280;58572;48.110;19.838;2023-04-27T08:31:39;98078.28;;;9.60;46.44
70921;BME280;58572;48.110;19.838;2023-04-27T08:34:08;98079.25;;;10.31;46.67
70921;BME280;58572;48.110;19.838;2023-04-27T08:36:35;98022.25;;;10.20;45.75
70921;BME280;58572;48.110;19.838;2023-04-27T08:39:02;98090.75;;;9.46;43.21
70921;BME280;58572;48.110;19.838;2023-04-27T08:41:32;98076.69;;;10.70;42.50
70921;BME280;58572;48.110;19.838;2023-04-27T08:43:59;98073.75;;;11.49;41.65
70921;BME280;58572;48.110;19.838;2023-04-27T08:46:26;98028.50;;;10.80;32.54
70921;BME280;58572;48.110;19.838;2023-04-27T08:48:55;98078.09;;;12.85;38.36
70921;BME280;58572;48.110;19.838;2023-04-27T08:51:23;98079.06;;;11.99;31.88
70921;BME280;58572;48.110;19.838;2023-04-27T08:53:54;98075.38;;;13.04;32.39
70921;BME280;58572;48.110;19.838;2023-04-27T08:56:22;98077.78;;;12.87;35.42
70921;BME280;58572;48.110;19.838;2023-04-27T08:58:50;98080.09;;;11.74;34.32
70921;BME280;58572;48.110;19.838;2023-04-27T09:01:18;98074.94;;;12.01;37.54
70921;BME280;58572;48.110;19.838;2023-04-27T09:03:45;98072.41;;;11.42;38.04
70921;BME280;58572;48.110;19.838;2023-04-27T09:06:13;98007.28;;;12.08;40.30
70921;BME280;58572;48.110;19.838;2023-04-27T09:08:44;98063.59;;;12.42;39.88
70921;BME280;58572;48.110;19.838;2023-04-27T09:11:11;98066.81;;;12.49;40.52
70921;BME280;58572;48.110;19.838;2023-04-27T09:13:40;98017.50;;;11.69;40.89
70921;BME280;58572;48.110;19.838;2023-04-27T09:16:10;98072.94;;;11.83;39.96
70921;BME280;58572;48.110;19.838;2023-04-27T09:18:41;98067.00;;;11.76;41.01
70921;BME280;58572;48.110;19.838;2023-04-27T09:21:10;98070.03;;;10.91;41.10
70921;BME280;58572;48.110;19.838;2023-04-27T09:23:53;98067.19;;;11.11;40.95
70921;BME280;58572;48.110;19.838;2023-04-27T09:26:21;98060.47;;;10.99;38.40
70921;BME280;58572;48.110;19.838;2023-04-27T09:28:51;98068.03;;;11.07;38.17
70921;BME280;58572;48.110;19.838;2023-04-27T09:31:19;98032.31;;;11.18;39.15
70921;BME280;58572;48.110;19.838;2023-04-27T09:33:53;98062.34;;;11.42;38.75
70921;BME280;58572;48.110;19.838;2023-04-27T09:36:21;98058.81;;;11.03;38.50
70921;BME280;58572;48.110;19.838;2023-04-27T09:38:51;98064.81;;;11.00;36.42
70921;BME280;58572;48.110;19.838;2023-04-27T09:41:19;98057.34;;;11.60;39.77
70921;BME280;58572;48.110;19.838;2023-04-27T09:43:46;98057.19;;;11.02;36.45
70921;BME280;58572;48.110;19.838;2023-04-27T09:46:14;98051.66;;;11.56;36.17
70921;BME280;58572;48.110;19.838;2023-04-27T09:48:41;98047.63;;;12.97;37.21
70921;BME280;58572;48.110;19.838;2023-04-27T09:51:08;98040.25;;;13.54;35.73
70921;BME280;58572;48.110;19.838;2023-04-27T09:53:39;98025.91;;;15.71;34.65
70921;BME280;58572;48.110;19.838;2023-04-27T09:56:23;98040.19;;;12.84;31.79
70921;BME280;58572;48.110;19.838;2023-04-27T09:59:15;98043.66;;;11.65;34.61
70921;BME280;58572;48.110;19.838;2023-04-27T10:01:46;98033.81;;;13.45;33.67
70921;BME280;58572;48.110;19.838;2023-04-27T10:04:33;98043.41;;;12.43;33.88
70921;BME280;58572;48.110;19.838;2023-04-27T10:07:05;98045.69;;;12.36;32.76
70921;BME280;58572;48.110;19.838;2023-04-27T10:09:39;98055.94;;;12.68;31.79
70921;BME280;58572;48.110;19.838;2023-04-27T10:12:17;98043.41;;;11.95;32.04
70921;BME280;58572;48.110;19.838;2023-04-27T10:14:51;98043.41;;;12.43;36.04
70921;BME280;58572;48.110;19.838;2023-04-27T10:17:23;98039.44;;;12.78;34.40
70921;BME280;58572;48.110;19.838;2023-04-27T10:19:56;97937.69;;;11.39;33.90
70921;BME280;58572;48.110;19.838;2023-04-27T10:22:24;98022.16;;;14.31;31.72
70921;BME280;58572;48.110;19.838;2023-04-27T10:25:12;98012.72;;;16.52;31.07
70921;BME280;58572;48.110;19.838;2023-04-27T10:27:40;98040.25;;;12.78;31.87
70921;BME280;58572;48.110;19.838;2023-04-27T10:30:09;98025.81;;;13.67;34.78
70921;BME280;58572;48.110;19.838;2023-04-27T10:32:37;98028.03;;;14.38;36.92
70921;BME280;58572;48.110;19.838;2023-04-27T10:35:07;98020.63;;;14.80;36.98
70921;BME280;58572;48.110;19.838;2023-04-27T10:37:38;98030.06;;;12.18;33.57
70921;BME280;58572;48.110;19.838;2023-04-27T10:40:07;98024.97;;;12.11;33.03
70921;BME280;58572;48.110;19.838;2023-04-27T10:42:40;98036.16;;;11.86;38.94
70921;BME280;58572;48.110;19.838;2023-04-27T10:45:08;98026.00;;;13.38;34.97
70921;BME280;58572;48.110;19.838;2023-04-27T10:47:39;98021.47;;;15.84;35.89
70921;BME280;58572;48.110;19.838;2023-04-27T10:50:08;98028.03;;;16.93;29.85
70921;BME280;58572;48.110;19.838;2023-04-27T10:52:41;98020.88;;;15.95;29.58
70921;BME280;58572;48.110;19.838;2023-04-27T10:55:15;98023.59;;;15.87;31.19
70921;BME280;58572;48.110;19.838;2023-04-27T10:57:49;97946.66;;;12.97;29.39
70921;BME280;58572;48.110;19.838;2023-04-27T11:00:22;98007.31;;;16.30;32.56
70921;BME280;58572;48.110;19.838;2023-04-27T11:02:50;97989.41;;;16.72;32.33
70921;BME280;58572;48.110;19.838;2023-04-27T11:05:18;98018.78;;;15.48;32.68
70921;BME280;58572;48.110;19.838;2023-04-27T11:07:47;98010.66;;;13.42;32.73
70921;BME280;58572;48.110;19.838;2023-04-27T11:10:15;98026.00;;;14.03;34.21
70921;BME280;58572;48.110;19.838;2023-04-27T11:12:43;98030.22;;;13.30;39.08
70921;BME280;58572;48.110;19.838;2023-04-27T11:15:12;98027.72;;;14.13;35.46
70921;BME280;58572;48.110;19.838;2023-04-27T11:17:39;97981.44;;;14.02;35.89
70921;BME280;58572;48.110;19.838;2023-04-27T11:20:07;98023.88;;;15.18;36.21
70921;BME280;58572;48.110;19.838;2023-04-27T11:22:43;98026.25;;;14.61;35.60
70921;BME280;58572;48.110;19.838;2023-04-27T11:25:10;98037.53;;;14.27;38.64
70921;BME280;58572;48.110;19.838;2023-04-27T11:27:39;98037.94;;;14.21;37.48
70921;BME280;58572;48.110;19.838;2023-04-27T11:30:19;98044.31;;;14.02;37.65
70921;BME280;58572;48.110;19.838;2023-04-27T11:32:47;98042.13;;;13.72;32.37
70921;BME280;58572;48.110;19.838;2023-04-27T11:35:14;98035.03;;;13.71;31.59
70921;BME280;58572;48.110;19.838;2023-04-27T11:37:42;98022.78;;;14.42;31.75
70921;BME280;58572;48.110;19.838;2023-04-27T11:40:12;98015.22;;;13.79;31.67
70921;BME280;58572;48.110;19.838;2023-04-27T11:42:42;98012.03;;;14.32;32.57
70921;BME280;58572;48.110;19.838;2023-04-27T11:45:11;98005.88;;;15.62;31.88
70921;BME280;58572;48.110;19.838;2023-04-27T11:47:45;98011.41;;;14.35;32.17
70921;BME280;58572;48.110;19.838;2023-04-27T11:50:13;98016.44;;;13.73;31.98
70921;BME280;58572;48.110;19.838;2023-04-27T11:52:40;98013.22;;;13.98;30.99
70921;BME280;58572;48.110;19.838;2023-04-27T11:55:07;98015.34;;;14.01;30.82
70921;BME280;58572;48.110;19.838;2023-04-27T11:57:40;97994.56;;;14.83;32.49
70921;BME280;58572;48.110;19.838;2023-04-27T12:00:08;98004.53;;;14.10;32.84
70921;BME280;58572;48.110;19.838;2023-04-27T12:02:40;98005.66;;;13.30;33.96
70921;BME280;58572;48.110;19.838;2023-04-27T12:05:08;97970.19;;;14.04;33.54
70921;BME280;58572;48.110;19.838;2023-04-27T12:07:36;98004.34;;;14.61;35.34
70921;BME280;58572;48.110;19.838;2023-04-27T12:10:04;97998.19;;;14.92;36.14
70921;BME280;58572;48.110;19.838;2023-04-27T12:12:32;98001.13;;;14.59;32.83
70921;BME280;58572;48.110;19.838;2023-04-27T12:14:59;98013.66;;;14.47;36.69
70921;BME280;58572;48.110;19.838;2023-04-27T12:17:27;97991.56;;;13.04;35.57
70921;BME280;58572;48.110;19.838;2023-04-27T12:19:55;98011.69;;;13.92;32.96
70921;BME280;58572;48.110;19.838;2023-04-27T12:22:22;98007.28;;;13.31;33.27
70921;BME280;58572;48.110;19.838;2023-04-27T12:24:50;98015.22;;;13.79;33.07
70921;BME280;58572;48.110;19.838;2023-04-27T12:27:17;97998.69;;;16.06;34.79
70921;BME280;58572;48.110;19.838;2023-04-27T12:29:44;98007.72;;;16.06;30.06
70921;BME280;58572;48.110;19.838;2023-04-27T12:32:11;97999.44;;;15.67;31.81
70921;BME280;58572;48.110;19.838;2023-04-27T12:34:38;97992.34;;;17.28;32.67
70921;BME280;58572;48.110;19.838;2023-04-27T12:37:08;97891.34;;;18.60;30.84
70921;BME280;58572;48.110;19.838;2023-04-27T12:39:36;97996.44;;;18.03;30.63
70921;BME280;58572;48.110;19.838;2023-04-27T12:42:04;98008.13;;;19.18;28.76
70921;BME280;58572;48.110;19.838;2023-04-27T12:44:31;97989.53;;;18.56;31.09
70921;BME280;58572;48.110;19.838;2023-04-27T12:46:58;98002.59;;;15.60;33.43
70921;BME280;58572;48.110;19.838;2023-04-27T12:49:25;97996.53;;;16.90;30.36
70921;BME280;58572;48.110;19.838;2023-04-27T12:51:52;98000.41;;;17.33;32.08
70921;BME280;58572;48.110;19.838;2023-04-27T12:54:23;98001.69;;;16.35;34.30
70921;BME280;58572;48.110;19.838;2023-04-27T12:56:50;98002.97;;;15.45;36.27
70921;BME280;58572;48.110;19.838;2023-04-27T12:59:17;98009.56;;;15.44;35.83
70921;BME280;58572;48.110;19.838;2023-04-27T13:01:45;98013.41;;;15.20;33.03